Time;durP1;ratioP1;P1;durP2;ratioP2;P2;SDS_P1;SDS_P2;PMS_P1;PMS_P2;Temp;Humidity;BMP_temperature;BMP_pressure;BME280_temperature;BME280_humidity;BME280_pressure;Samples;Min_cycle;Max_cycle;Signal;HPM_P1;HPM_P2
2021/01/20 00:00:22;;;;;;;;;;;7.60;57.10;;;;;;5104824;28;19908;-68
2021/01/20 00:02:48;;;;;;;;;;;7.60;57.10;;;;;;5105961;28;19926;-68
2021/01/20 00:05:13;;;;;;;;;;;7.60;57.20;;;;;;5106022;28;20099;-67
2021/01/20 00:07:39;;;;;;;;;;;7.60;57.20;;;;;;5105999;28;19915;-67
2021/01/20 00:10:05;;;;;;;;;;;7.60;57.30;;;;;;5105964;28;19922;-66
2021/01/20 00:12:31;;;;;;;;;;;7.60;57.10;;;;;;5105842;28;19923;-67
2021/01/20 00:14:56;;;;;;;;;;;7.60;57.10;;;;;;5105800;28;19900;-67
2021/01/20 00:17:22;;;;;;;;;;;7.60;57.20;;;;;;5105843;28;19942;-67
2021/01/20 00:19:48;;;;;;;;;;;7.60;57.30;;;;;;5105760;28;20139;-67
2021/01/20 00:22:13;;;;;;;;;;;7.60;57.20;;;;;;5105629;28;19904;-67
2021/01/20 00:24:39;;;;;;;;;;;7.60;57.30;;;;;;5105447;28;19920;-64
2021/01/20 00:27:05;;;;;;;;;;;7.60;57.20;;;;;;5105610;28;19997;-67
2021/01/20 00:29:31;;;;;;;;;;;7.60;57.30;;;;;;5105491;28;19900;-68
2021/01/20 00:31:57;;;;;;;;;;;7.60;57.30;;;;;;5105451;28;20013;-66
2021/01/20 00:34:23;;;;;;;;;;;7.60;57.20;;;;;;5105416;28;19908;-67
2021/01/20 00:36:48;;;;;;;;;;;7.60;57.10;;;;;;5105370;28;19900;-67
2021/01/20 00:39:14;;;;;;;;;;;7.60;57.20;;;;;;5105373;28;19918;-63
2021/01/20 00:41:39;;;;;;;;;;;7.60;57.20;;;;;;5105267;28;19947;-67
2021/01/20 00:44:05;;;;;;;;;;;7.60;57.30;;;;;;5105209;28;19910;-68
2021/01/20 00:46:30;;;;;;;;;;;7.60;57.40;;;;;;5105166;28;19941;-69
2021/01/20 00:48:56;;;;;;;;;;;7.60;57.30;;;;;;5105138;28;20195;-68
2021/01/20 00:51:22;;;;;;;;;;;7.60;57.20;;;;;;5105105;28;20131;-68
2021/01/20 00:53:47;;;;;;;;;;;7.60;57.10;;;;;;5105059;28;20255;-66
2021/01/20 00:56:13;;;;;;;;;;;7.60;57.10;;;;;;5105055;28;19907;-68
2021/01/20 00:58:38;;;;;;;;;;;7.60;57.10;;;;;;5104920;28;19950;-68
2021/01/20 01:01:04;;;;;;;;;;;7.60;57.20;;;;;;5104926;28;19908;-63
2021/01/20 01:03:30;;;;;;;;;;;7.60;57.20;;;;;;5104809;28;19904;-66
2021/01/20 01:05:55;;;;;;;;;;;7.60;57.40;;;;;;5104845;28;19976;-67
2021/01/20 01:08:22;;;;;;;;;;;7.60;57.50;;;;;;5104748;28;19966;-67
2021/01/20 01:10:48;;;;;;;;;;;7.60;57.30;;;;;;5104503;28;19908;-65
2021/01/20 01:13:13;;;;;;;;;;;7.60;57.20;;;;;;5104669;28;20197;-67
2021/01/20 01:15:39;;;;;;;;;;;7.60;57.40;;;;;;5104638;28;19908;-64
2021/01/20 01:18:04;;;;;;;;;;;7.60;57.30;;;;;;5104561;28;19900;-66
2021/01/20 01:20:30;;;;;;;;;;;7.70;57.30;;;;;;5104523;28;19900;-67
2021/01/20 01:22:58;;;;;;;;;;;7.70;57.30;;;;;;5104245;28;19911;-67
2021/01/20 01:25:24;;;;;;;;;;;7.60;57.30;;;;;;5104448;28;19907;-66
2021/01/20 01:27:50;;;;;;;;;;;7.60;57.30;;;;;;5104315;28;20100;-66
2021/01/20 01:30:16;;;;;;;;;;;7.60;57.30;;;;;;5104309;28;19997;-68
2021/01/20 01:32:41;;;;;;;;;;;7.60;57.30;;;;;;5104267;28;19963;-66
2021/01/20 01:35:07;;;;;;;;;;;7.60;57.40;;;;;;5104206;28;19908;-66
2021/01/20 01:37:32;;;;;;;;;;;7.60;57.40;;;;;;5104243;28;19908;-66
2021/01/20 01:39:58;;;;;;;;;;;7.60;57.50;;;;;;5104164;28;20317;-67
2021/01/20 01:42:30;;;;;;;;;;;7.60;57.40;;;;;;5104058;28;19919;-67
2021/01/20 01:44:55;;;;;;;;;;;7.60;57.40;;;;;;5104142;28;19907;-68
2021/01/20 01:47:21;;;;;;;;;;;7.60;57.40;;;;;;5104005;28;19900;-68
2021/01/20 01:49:47;;;;;;;;;;;7.60;57.50;;;;;;5103981;28;19927;-64
2021/01/20 01:52:13;;;;;;;;;;;7.60;57.40;;;;;;5104153;28;19938;-68
2021/01/20 01:54:39;;;;;;;;;;;7.60;57.40;;;;;;5103863;28;19931;-67
2021/01/20 01:57:05;;;;;;;;;;;7.60;57.30;;;;;;5103783;28;20279;-69
2021/01/20 01:59:30;;;;;;;;;;;7.70;57.30;;;;;;5103783;28;19900;-67
2021/01/20 02:01:56;;;;;;;;;;;7.70;57.40;;;;;;5103645;28;20134;-67
2021/01/20 02:04:22;;;;;;;;;;;7.60;57.40;;;;;;5103738;28;19908;-67
2021/01/20 02:06:51;;;;;;;;;;;7.60;57.40;;;;;;5102459;28;19975;-67
2021/01/20 02:09:17;;;;;;;;;;;7.60;57.50;;;;;;5103601;28;19935;-65
2021/01/20 02:11:49;;;;;;;;;;;7.60;57.40;;;;;;5103566;28;20227;-68
2021/01/20 02:14:20;;;;;;;;;;;7.60;57.30;;;;;;5103483;28;19908;-67
2021/01/20 02:16:54;;;;;;;;;;;7.70;57.30;;;;;;5103471;28;19900;-68
2021/01/20 02:19:21;;;;;;;;;;;7.70;57.20;;;;;;5103434;28;19935;-68
2021/01/20 02:21:54;;;;;;;;;;;7.70;57.30;;;;;;5102741;28;19904;-66
2021/01/20 02:24:22;;;;;;;;;;;7.70;57.40;;;;;;5103135;28;19920;-67
2021/01/20 02:26:56;;;;;;;;;;;7.70;57.40;;;;;;5103310;28;19927;-68
2021/01/20 02:29:21;;;;;;;;;;;7.70;57.40;;;;;;5103286;28;19904;-68
2021/01/20 02:31:48;;;;;;;;;;;7.70;57.40;;;;;;5103177;28;20001;-66
2021/01/20 02:34:16;;;;;;;;;;;7.70;57.40;;;;;;5103236;28;19900;-67
2021/01/20 02:36:43;;;;;;;;;;;7.70;57.40;;;;;;5103167;28;19907;-64
2021/01/20 02:39:08;;;;;;;;;;;7.70;57.50;;;;;;5103083;28;19900;-66
2021/01/20 02:41:34;;;;;;;;;;;7.70;57.40;;;;;;5103124;28;19943;-64
2021/01/20 02:44:00;;;;;;;;;;;7.60;57.30;;;;;;5102929;28;19904;-67
2021/01/20 02:46:26;;;;;;;;;;;7.60;57.40;;;;;;5102992;28;20211;-66
2021/01/20 02:48:52;;;;;;;;;;;7.70;57.40;;;;;;5102959;28;19907;-66
2021/01/20 02:51:27;;;;;;;;;;;7.70;57.50;;;;;;5102918;28;19906;-67
2021/01/20 02:53:54;;;;;;;;;;;7.60;57.40;;;;;;5102850;28;20250;-67
2021/01/20 02:56:21;;;;;;;;;;;7.70;57.50;;;;;;5103110;28;19908;-68
2021/01/20 02:58:49;;;;;;;;;;;7.70;57.60;;;;;;5102854;28;19983;-66
2021/01/20 03:01:15;;;;;;;;;;;7.70;57.60;;;;;;5102806;28;19911;-67
2021/01/20 03:03:41;;;;;;;;;;;7.70;57.60;;;;;;5102675;28;19979;-68
2021/01/20 03:06:08;;;;;;;;;;;7.60;57.50;;;;;;5102715;28;20008;-66
2021/01/20 03:08:33;;;;;;;;;;;7.60;57.60;;;;;;5102730;28;19992;-69
2021/01/20 03:11:05;;;;;;;;;;;7.70;57.50;;;;;;5102657;28;20196;-67
2021/01/20 03:13:33;;;;;;;;;;;7.70;57.30;;;;;;5102633;28;19907;-68
2021/01/20 03:15:59;;;;;;;;;;;7.70;57.20;;;;;;5102593;28;19900;-66
2021/01/20 03:18:27;;;;;;;;;;;7.70;57.20;;;;;;5102613;28;19908;-67
2021/01/20 03:20:53;;;;;;;;;;;7.70;57.30;;;;;;5102576;28;20203;-66
2021/01/20 03:23:18;;;;;;;;;;;7.70;57.40;;;;;;5102309;28;19919;-67
2021/01/20 03:25:44;;;;;;;;;;;7.70;57.50;;;;;;5102601;28;20138;-64
2021/01/20 03:28:09;;;;;;;;;;;7.70;57.50;;;;;;5102523;28;19975;-67
2021/01/20 03:30:35;;;;;;;;;;;7.70;57.60;;;;;;5102557;28;19954;-67
2021/01/20 03:33:01;;;;;;;;;;;7.70;57.50;;;;;;5102494;28;19907;-68
2021/01/20 03:35:27;;;;;;;;;;;7.70;57.50;;;;;;5105273;28;19900;-67
2021/01/20 03:37:52;;;;;;;;;;;7.70;57.30;;;;;;5106811;28;20072;-66
2021/01/20 03:40:18;;;;;;;;;;;7.70;57.50;;;;;;5106508;28;19906;-65
2021/01/20 03:42:43;;;;;;;;;;;7.70;57.50;;;;;;5106388;28;19957;-68
2021/01/20 03:45:09;;;;;;;;;;;7.70;57.50;;;;;;5106641;28;19935;-67
2021/01/20 03:47:35;;;;;;;;;;;7.70;57.60;;;;;;5106383;28;19973;-67
2021/01/20 03:50:01;;;;;;;;;;;7.70;57.60;;;;;;5106300;28;20211;-66
2021/01/20 03:52:26;;;;;;;;;;;7.70;57.60;;;;;;5106516;28;20455;-68
2021/01/20 03:54:52;;;;;;;;;;;7.70;57.50;;;;;;5106209;28;19976;-67
2021/01/20 03:57:17;;;;;;;;;;;7.60;57.50;;;;;;5106118;28;19915;-66
2021/01/20 03:59:43;;;;;;;;;;;7.70;57.50;;;;;;5106170;28;19959;-68
2021/01/20 04:02:08;;;;;;;;;;;7.70;57.60;;;;;;5105974;28;20134;-68
2021/01/20 04:04:34;;;;;;;;;;;7.70;57.60;;;;;;5106016;28;20295;-65
2021/01/20 04:07:02;;;;;;;;;;;7.60;57.60;;;;;;5106018;28;19908;-67
2021/01/20 04:09:28;;;;;;;;;;;7.70;57.70;;;;;;5105945;28;20126;-65
2021/01/20 04:11:53;;;;;;;;;;;7.70;57.60;;;;;;5105866;28;19908;-68
2021/01/20 04:14:19;;;;;;;;;;;7.70;57.50;;;;;;5105818;28;19908;-68
2021/01/20 04:16:45;;;;;;;;;;;7.70;57.50;;;;;;5105778;28;19915;-67
2021/01/20 04:19:10;;;;;;;;;;;7.70;57.50;;;;;;5105737;28;19900;-67
2021/01/20 04:21:36;;;;;;;;;;;7.70;57.50;;;;;;5105718;28;19907;-66
2021/01/20 04:24:01;;;;;;;;;;;7.70;57.50;;;;;;5105418;28;19973;-68
2021/01/20 04:26:27;;;;;;;;;;;7.70;57.60;;;;;;5105612;28;19915;-66
2021/01/20 04:28:52;;;;;;;;;;;7.70;57.60;;;;;;5105570;28;19915;-67
2021/01/20 04:31:18;;;;;;;;;;;7.70;57.70;;;;;;5105479;28;19900;-67
2021/01/20 04:33:43;;;;;;;;;;;7.70;57.60;;;;;;5105509;28;19976;-67
2021/01/20 04:36:09;;;;;;;;;;;7.70;57.60;;;;;;5105397;28;20248;-66
2021/01/20 04:38:35;;;;;;;;;;;7.70;57.40;;;;;;5105328;28;19899;-67
2021/01/20 04:41:01;;;;;;;;;;;7.70;57.30;;;;;;5105591;28;20010;-67
2021/01/20 04:43:26;;;;;;;;;;;7.70;57.40;;;;;;5105199;28;19904;-67
2021/01/20 04:45:52;;;;;;;;;;;7.70;57.50;;;;;;5104660;28;19908;-66
2021/01/20 04:48:19;;;;;;;;;;;7.70;57.50;;;;;;5105429;28;19915;-67
2021/01/20 04:50:46;;;;;;;;;;;7.70;57.60;;;;;;5105112;28;19900;-68
2021/01/20 04:53:12;;;;;;;;;;;7.70;57.60;;;;;;5105059;28;19915;-66
2021/01/20 04:55:40;;;;;;;;;;;7.70;57.60;;;;;;5104975;28;19907;-66
2021/01/20 04:58:08;;;;;;;;;;;7.70;57.70;;;;;;5104948;28;19907;-65
2021/01/20 05:00:33;;;;;;;;;;;7.70;57.50;;;;;;5104954;28;19908;-67
2021/01/20 05:03:00;;;;;;;;;;;7.70;57.60;;;;;;5104810;28;20202;-66
2021/01/20 05:05:26;;;;;;;;;;;7.70;57.60;;;;;;5104831;28;19900;-68
2021/01/20 05:07:51;;;;;;;;;;;7.70;57.60;;;;;;5104803;28;20309;-68
2021/01/20 05:10:17;;;;;;;;;;;7.70;57.60;;;;;;5104684;28;20146;-65
2021/01/20 05:12:43;;;;;;;;;;;7.70;57.60;;;;;;5104687;28;20149;-66
2021/01/20 05:15:14;;;;;;;;;;;7.70;57.60;;;;;;5104637;28;20271;-66
2021/01/20 05:17:59;;;;;;;;;;;7.70;57.60;;;;;;5104623;28;19900;-67
2021/01/20 05:20:25;;;;;;;;;;;7.70;57.50;;;;;;5104504;28;19943;-65
2021/01/20 05:22:58;;;;;;;;;;;7.70;57.60;;;;;;5104334;28;19975;-68
2021/01/20 05:25:31;;;;;;;;;;;7.70;57.70;;;;;;5104786;28;20115;-64
2021/01/20 05:27:57;;;;;;;;;;;7.70;57.70;;;;;;5104440;28;19900;-64
2021/01/20 05:30:23;;;;;;;;;;;7.70;57.80;;;;;;5104448;28;20165;-66
2021/01/20 05:32:59;;;;;;;;;;;7.70;57.80;;;;;;5104325;28;19904;-66
2021/01/20 05:35:25;;;;;;;;;;;7.70;57.60;;;;;;5104573;28;19900;-67
2021/01/20 05:37:50;;;;;;;;;;;7.70;57.50;;;;;;5104207;28;20091;-68
2021/01/20 05:40:17;;;;;;;;;;;7.70;57.40;;;;;;5104207;28;19908;-68
2021/01/20 05:42:44;;;;;;;;;;;7.80;57.50;;;;;;5104018;28;20261;-66
2021/01/20 05:45:09;;;;;;;;;;;7.70;57.60;;;;;;5104093;28;19912;-66
2021/01/20 05:47:35;;;;;;;;;;;7.70;57.60;;;;;;5104026;28;19907;-67
2021/01/20 05:50:07;;;;;;;;;;;7.70;57.60;;;;;;5103960;28;19900;-67
2021/01/20 05:52:33;;;;;;;;;;;7.70;57.60;;;;;;5103887;28;19908;-67
2021/01/20 05:55:09;;;;;;;;;;;7.70;57.60;;;;;;5103849;28;19947;-67
2021/01/20 05:57:34;;;;;;;;;;;7.70;57.60;;;;;;5102918;28;20203;-66
2021/01/20 06:00:12;;;;;;;;;;;7.70;57.60;;;;;;5103761;28;19907;-66
2021/01/20 06:02:38;;;;;;;;;;;7.70;57.70;;;;;;5103669;28;19908;-66
2021/01/20 06:05:05;;;;;;;;;;;7.70;57.60;;;;;;5103692;28;19930;-67
2021/01/20 06:07:30;;;;;;;;;;;7.70;57.50;;;;;;5103648;28;19914;-67
2021/01/20 06:09:57;;;;;;;;;;;7.80;57.60;;;;;;5103592;28;19935;-67
2021/01/20 06:12:22;;;;;;;;;;;7.70;57.60;;;;;;5103543;28;19908;-65
2021/01/20 06:14:48;;;;;;;;;;;7.70;57.70;;;;;;5102312;28;19942;-66
2021/01/20 06:17:32;;;;;;;;;;;7.70;57.70;;;;;;5103478;28;20200;-68
2021/01/20 06:20:00;;;;;;;;;;;7.70;57.70;;;;;;5103375;28;19912;-66
2021/01/20 06:22:26;;;;;;;;;;;7.70;57.80;;;;;;5103289;28;19926;-67
2021/01/20 06:24:55;;;;;;;;;;;7.70;57.70;;;;;;5103445;28;19966;-67
2021/01/20 06:27:26;;;;;;;;;;;7.70;57.80;;;;;;5103337;28;19949;-66
2021/01/20 06:30:14;;;;;;;;;;;7.70;57.90;;;;;;5103251;28;20207;-68
2021/01/20 06:32:42;;;;;;;;;;;7.70;57.70;;;;;;5100027;28;19900;-66
2021/01/20 06:35:08;;;;;;;;;;;7.70;57.80;;;;;;5103135;28;19908;-65
2021/01/20 06:37:34;;;;;;;;;;;7.70;57.60;;;;;;5103032;28;19900;-67
2021/01/20 06:39:59;;;;;;;;;;;7.70;57.70;;;;;;5101907;28;19908;-67
2021/01/20 06:42:32;;;;;;;;;;;7.70;57.70;;;;;;5103019;28;19903;-66
2021/01/20 06:45:13;;;;;;;;;;;7.80;57.70;;;;;;5103007;28;19946;-67
2021/01/20 06:47:56;;;;;;;;;;;7.80;57.70;;;;;;5103021;28;19904;-66
2021/01/20 06:50:22;;;;;;;;;;;7.80;57.70;;;;;;5102918;28;19930;-64
2021/01/20 06:53:07;;;;;;;;;;;7.80;57.70;;;;;;5102917;28;20199;-65
2021/01/20 06:55:34;;;;;;;;;;;7.80;57.70;;;;;;5102907;28;19940;-65
2021/01/20 06:58:20;;;;;;;;;;;7.70;57.60;;;;;;5102813;28;19914;-67
2021/01/20 07:01:01;;;;;;;;;;;7.70;57.50;;;;;;5102538;28;19900;-67
2021/01/20 07:03:42;;;;;;;;;;;7.80;57.60;;;;;;5102670;28;19904;-68
2021/01/20 07:06:31;;;;;;;;;;;7.80;57.40;;;;;;5102725;28;19931;-66
2021/01/20 07:08:56;;;;;;;;;;;7.80;57.40;;;;;;5099316;28;20199;-68
2021/01/20 07:11:22;;;;;;;;;;;7.80;57.50;;;;;;5102648;28;19908;-67
2021/01/20 07:13:47;;;;;;;;;;;7.80;57.50;;;;;;5102664;28;19943;-65
2021/01/20 07:16:13;;;;;;;;;;;7.80;57.70;;;;;;5102684;28;19900;-66
2021/01/20 07:18:40;;;;;;;;;;;7.80;57.60;;;;;;5102921;28;19912;-68
2021/01/20 07:21:06;;;;;;;;;;;7.80;57.60;;;;;;5102648;28;19900;-67
2021/01/20 07:23:32;;;;;;;;;;;7.80;57.60;;;;;;5102402;28;19912;-65
2021/01/20 07:25:58;;;;;;;;;;;7.80;57.60;;;;;;5102544;28;19987;-65
2021/01/20 07:28:23;;;;;;;;;;;7.80;57.60;;;;;;5102582;28;19900;-66
2021/01/20 07:30:49;;;;;;;;;;;7.80;57.50;;;;;;5102482;28;19908;-66
2021/01/20 07:33:22;;;;;;;;;;;7.80;57.50;;;;;;5102530;28;19910;-67
2021/01/20 07:35:48;;;;;;;;;;;7.80;57.50;;;;;;5102486;28;19908;-67
2021/01/20 07:38:14;;;;;;;;;;;7.80;57.50;;;;;;5102451;28;19908;-62
2021/01/20 07:40:43;;;;;;;;;;;7.80;57.60;;;;;;5102392;28;19900;-67
2021/01/20 07:43:22;;;;;;;;;;;7.80;57.50;;;;;;5102371;28;19915;-66
2021/01/20 07:45:47;;;;;;;;;;;7.80;57.50;;;;;;5102359;28;19953;-67
2021/01/20 07:48:13;;;;;;;;;;;7.80;57.60;;;;;;5102404;28;19904;-66
2021/01/20 07:50:39;;;;;;;;;;;7.90;57.60;;;;;;5102335;28;20112;-66
2021/01/20 07:53:05;;;;;;;;;;;7.90;57.60;;;;;;5101105;28;20152;-68
2021/01/20 07:55:31;;;;;;;;;;;7.90;57.60;;;;;;5102249;28;19935;-67
2021/01/20 07:57:57;;;;;;;;;;;7.90;57.50;;;;;;5101275;28;19907;-66
2021/01/20 08:00:22;;;;;;;;;;;7.90;57.40;;;;;;5102235;28;20006;-67
2021/01/20 08:02:48;;;;;;;;;;;7.90;57.30;;;;;;5102099;28;20104;-67
2021/01/20 08:05:14;;;;;;;;;;;8.00;57.20;;;;;;5102195;28;19949;-64
2021/01/20 08:07:39;;;;;;;;;;;8.00;57.20;;;;;;5102170;28;19900;-68
2021/01/20 08:10:17;;;;;;;;;;;8.00;57.20;;;;;;5102161;28;19907;-67
2021/01/20 08:12:43;;;;;;;;;;;8.00;57.20;;;;;;5102200;28;19908;-68
2021/01/20 08:15:08;;;;;;;;;;;8.00;57.30;;;;;;5102039;28;19907;-69
2021/01/20 08:17:34;;;;;;;;;;;7.90;57.30;;;;;;5102068;28;20263;-66
2021/01/20 08:20:00;;;;;;;;;;;8.00;57.50;;;;;;5102355;28;20107;-65
2021/01/20 08:22:26;;;;;;;;;;;8.00;57.40;;;;;;5105632;28;19927;-69
2021/01/20 08:24:51;;;;;;;;;;;8.00;57.40;;;;;;5104299;28;19941;-67
2021/01/20 08:27:30;;;;;;;;;;;8.00;57.40;;;;;;5105624;28;19992;-64
2021/01/20 08:29:59;;;;;;;;;;;8.00;57.30;;;;;;5105596;28;19910;-67
2021/01/20 08:32:25;;;;;;;;;;;8.00;57.30;;;;;;5105497;28;20073;-69
2021/01/20 08:34:51;;;;;;;;;;;8.10;57.20;;;;;;5105468;28;19907;-67
2021/01/20 08:37:18;;;;;;;;;;;8.10;57.20;;;;;;5105339;28;19908;-64
2021/01/20 08:39:53;;;;;;;;;;;8.10;57.20;;;;;;5105383;28;19916;-68
2021/01/20 08:42:23;;;;;;;;;;;8.10;57.10;;;;;;5105198;28;19935;-68
2021/01/20 08:45:03;;;;;;;;;;;8.20;56.90;;;;;;5105215;28;19900;-67
2021/01/20 08:47:29;;;;;;;;;;;8.30;56.70;;;;;;5105227;28;19987;-68
2021/01/20 08:49:55;;;;;;;;;;;8.30;56.60;;;;;;5105175;28;19900;-66
2021/01/20 08:52:21;;;;;;;;;;;8.30;56.60;;;;;;5105136;28;19907;-66
2021/01/20 08:54:47;;;;;;;;;;;8.40;56.30;;;;;;5104991;28;19900;-69
2021/01/20 08:57:17;;;;;;;;;;;8.40;56.50;;;;;;5105046;28;20204;-67
2021/01/20 08:59:49;;;;;;;;;;;8.40;56.40;;;;;;5104955;28;19907;-65
2021/01/20 09:02:20;;;;;;;;;;;8.40;56.40;;;;;;5104834;28;20199;-66
2021/01/20 09:04:46;;;;;;;;;;;8.40;56.40;;;;;;5104858;28;19946;-65
2021/01/20 09:07:12;;;;;;;;;;;8.40;56.60;;;;;;5104869;28;19947;-66
2021/01/20 09:09:37;;;;;;;;;;;8.40;56.70;;;;;;5104389;28;19908;-66
2021/01/20 09:12:05;;;;;;;;;;;8.30;56.80;;;;;;5104817;28;19966;-68
2021/01/20 09:14:30;;;;;;;;;;;8.30;56.90;;;;;;5104673;28;20100;-66
2021/01/20 09:16:56;;;;;;;;;;;8.30;57.10;;;;;;5104641;28;19900;-68
2021/01/20 09:19:23;;;;;;;;;;;8.30;57.10;;;;;;5104637;28;19934;-66
2021/01/20 09:21:49;;;;;;;;;;;8.20;57.00;;;;;;5104799;28;20009;-66
2021/01/20 09:24:15;;;;;;;;;;;8.30;56.80;;;;;;5104295;28;19916;-67
2021/01/20 09:26:40;;;;;;;;;;;8.40;56.70;;;;;;5104414;28;19907;-68
2021/01/20 09:29:06;;;;;;;;;;;8.50;56.30;;;;;;5104376;28;19900;-68
2021/01/20 09:31:31;;;;;;;;;;;8.60;56.20;;;;;;5104246;28;19935;-68
2021/01/20 09:33:57;;;;;;;;;;;8.60;56.30;;;;;;5104328;28;19908;-66
2021/01/20 09:36:22;;;;;;;;;;;8.60;56.30;;;;;;5104312;28;19908;-66
2021/01/20 09:38:48;;;;;;;;;;;8.60;56.30;;;;;;5104213;28;19970;-66
2021/01/20 09:41:14;;;;;;;;;;;8.60;56.40;;;;;;5104188;28;19915;-68
2021/01/20 09:43:39;;;;;;;;;;;8.60;56.20;;;;;;5104075;28;19957;-68
2021/01/20 09:46:05;;;;;;;;;;;8.60;56.30;;;;;;5104022;28;19900;-68
2021/01/20 09:48:30;;;;;;;;;;;8.60;56.40;;;;;;5104034;28;19900;-67
2021/01/20 09:50:56;;;;;;;;;;;8.60;56.50;;;;;;5103967;28;19935;-67
2021/01/20 09:53:22;;;;;;;;;;;8.60;56.30;;;;;;5103955;28;20064;-66
2021/01/20 09:55:47;;;;;;;;;;;8.70;56.60;;;;;;5103825;28;19912;-67
2021/01/20 09:58:13;;;;;;;;;;;8.70;56.20;;;;;;5103872;28;19900;-67
2021/01/20 10:00:39;;;;;;;;;;;8.80;55.90;;;;;;5103766;28;19912;-67
2021/01/20 10:03:06;;;;;;;;;;;8.80;56.10;;;;;;5103711;28;19950;-66
2021/01/20 10:05:32;;;;;;;;;;;8.80;56.30;;;;;;5103921;28;19975;-67
2021/01/20 10:07:57;;;;;;;;;;;8.70;56.30;;;;;;5103604;28;19908;-66
2021/01/20 10:10:23;;;;;;;;;;;8.70;56.60;;;;;;5103599;28;19906;-68
2021/01/20 10:12:50;;;;;;;;;;;8.60;56.60;;;;;;5103511;28;19908;-66
2021/01/20 10:15:15;;;;;;;;;;;8.70;56.70;;;;;;5103491;28;19965;-66
2021/01/20 10:17:41;;;;;;;;;;;8.70;56.70;;;;;;5103465;28;19904;-68
2021/01/20 10:20:07;;;;;;;;;;;8.70;56.80;;;;;;5103412;28;20130;-67
2021/01/20 10:22:33;;;;;;;;;;;8.70;56.60;;;;;;5103302;28;19912;-66
2021/01/20 10:24:58;;;;;;;;;;;8.70;56.40;;;;;;5103207;28;19919;-67
2021/01/20 10:27:24;;;;;;;;;;;8.80;56.30;;;;;;5103298;28;19915;-64
2021/01/20 10:29:49;;;;;;;;;;;8.80;56.00;;;;;;5103249;28;19907;-67
2021/01/20 10:32:15;;;;;;;;;;;8.80;56.20;;;;;;5103242;28;19900;-67
2021/01/20 10:34:40;;;;;;;;;;;8.90;56.60;;;;;;5103145;28;19957;-67
2021/01/20 10:37:06;;;;;;;;;;;8.80;56.90;;;;;;5103145;28;19987;-69
2021/01/20 10:39:32;;;;;;;;;;;8.70;56.70;;;;;;5103125;28;19908;-68
2021/01/20 10:41:57;;;;;;;;;;;8.70;56.80;;;;;;5103014;28;19931;-64
2021/01/20 10:44:23;;;;;;;;;;;8.80;56.70;;;;;;5102462;28;20081;-67
2021/01/20 10:46:48;;;;;;;;;;;8.80;56.40;;;;;;5102916;28;19908;-66
2021/01/20 10:49:14;;;;;;;;;;;8.80;56.50;;;;;;5103232;28;20173;-66
2021/01/20 10:51:40;;;;;;;;;;;8.80;56.60;;;;;;5102897;28;19906;-66
2021/01/20 10:54:06;;;;;;;;;;;8.80;56.60;;;;;;5102840;28;19904;-68
2021/01/20 10:56:32;;;;;;;;;;;8.80;56.40;;;;;;5102849;28;19907;-68
2021/01/20 10:58:57;;;;;;;;;;;8.90;56.30;;;;;;5102814;28;19908;-66
2021/01/20 11:01:23;;;;;;;;;;;8.90;56.40;;;;;;5102867;28;19900;-66
2021/01/20 11:03:49;;;;;;;;;;;8.90;56.20;;;;;;5102701;28;20115;-67
2021/01/20 11:06:14;;;;;;;;;;;9.00;56.60;;;;;;5102756;28;19980;-67
2021/01/20 11:08:40;;;;;;;;;;;8.90;56.80;;;;;;5102761;28;19904;-67
2021/01/20 11:11:06;;;;;;;;;;;9.00;56.10;;;;;;5102672;28;19900;-68
2021/01/20 11:13:32;;;;;;;;;;;9.00;56.40;;;;;;5102680;28;19904;-67
2021/01/20 11:15:58;;;;;;;;;;;9.00;56.20;;;;;;5102635;28;19916;-66
2021/01/20 11:18:25;;;;;;;;;;;9.00;56.10;;;;;;5102633;28;19961;-67
2021/01/20 11:20:50;;;;;;;;;;;9.00;56.00;;;;;;5102550;28;19912;-67
2021/01/20 11:23:17;;;;;;;;;;;9.10;55.90;;;;;;5102298;28;19912;-67
2021/01/20 11:25:44;;;;;;;;;;;9.10;55.70;;;;;;5102578;28;20107;-68
2021/01/20 11:28:11;;;;;;;;;;;9.10;55.70;;;;;;5102806;28;19900;-66
2021/01/20 11:30:36;;;;;;;;;;;9.20;56.00;;;;;;5102560;28;19932;-67
2021/01/20 11:33:02;;;;;;;;;;;9.20;55.50;;;;;;5102535;28;20265;-67
2021/01/20 11:35:28;;;;;;;;;;;9.20;55.60;;;;;;5102456;28;20196;-65
2021/01/20 11:37:56;;;;;;;;;;;9.20;55.60;;;;;;5102420;28;19975;-67
2021/01/20 11:40:25;;;;;;;;;;;9.30;55.50;;;;;;5102620;28;19900;-68
2021/01/20 11:42:57;;;;;;;;;;;9.20;55.50;;;;;;5102280;28;19904;-66
2021/01/20 11:45:33;;;;;;;;;;;9.30;55.90;;;;;;5101186;28;19912;-66
2021/01/20 11:47:58;;;;;;;;;;;9.30;55.70;;;;;;5102308;28;19938;-66
2021/01/20 11:50:24;;;;;;;;;;;9.40;55.60;;;;;;5102289;28;20183;-65
2021/01/20 11:52:50;;;;;;;;;;;9.40;55.60;;;;;;5102282;28;19990;-66
2021/01/20 11:55:16;;;;;;;;;;;9.40;55.40;;;;;;5103025;28;19906;-66
2021/01/20 11:57:41;;;;;;;;;;;9.40;55.40;;;;;;5106175;28;19900;-67
2021/01/20 12:00:09;;;;;;;;;;;9.40;55.60;;;;;;5106091;28;19908;-66
2021/01/20 12:02:35;;;;;;;;;;;9.40;55.60;;;;;;5105958;28;19911;-67
2021/01/20 12:05:00;;;;;;;;;;;9.50;55.90;;;;;;5105987;28;19900;-67
2021/01/20 12:07:26;;;;;;;;;;;9.50;55.40;;;;;;5105966;28;20156;-66
2021/01/20 12:09:52;;;;;;;;;;;9.40;55.30;;;;;;5105924;28;19953;-66
2021/01/20 12:12:17;;;;;;;;;;;9.50;55.20;;;;;;5105875;28;19908;-65
2021/01/20 12:14:43;;;;;;;;;;;9.50;55.50;;;;;;5105830;28;19922;-66
2021/01/20 12:17:09;;;;;;;;;;;9.40;55.40;;;;;;5105798;28;20192;-67
2021/01/20 12:19:34;;;;;;;;;;;9.50;55.40;;;;;;5105745;28;20160;-65
2021/01/20 12:22:00;;;;;;;;;;;9.50;55.30;;;;;;5105653;28;19900;-64
2021/01/20 12:24:25;;;;;;;;;;;9.50;55.20;;;;;;5105450;28;19912;-68
2021/01/20 12:26:53;;;;;;;;;;;9.60;55.10;;;;;;5105615;28;19904;-67
2021/01/20 12:29:18;;;;;;;;;;;9.60;55.10;;;;;;5104304;28;19900;-68
2021/01/20 12:31:44;;;;;;;;;;;9.70;54.90;;;;;;5105533;28;19908;-63
2021/01/20 12:34:10;;;;;;;;;;;9.70;55.10;;;;;;5105450;28;19938;-66
2021/01/20 12:36:35;;;;;;;;;;;9.60;55.20;;;;;;5105441;28;19900;-67
2021/01/20 12:39:01;;;;;;;;;;;9.60;55.00;;;;;;5105382;28;20282;-68
2021/01/20 12:41:27;;;;;;;;;;;9.60;55.20;;;;;;5105306;28;19907;-67
2021/01/20 12:43:53;;;;;;;;;;;9.50;55.40;;;;;;5105483;28;19914;-66
2021/01/20 12:46:19;;;;;;;;;;;9.50;55.50;;;;;;5105255;28;20114;-67
2021/01/20 12:48:44;;;;;;;;;;;9.50;55.50;;;;;;5105196;28;20002;-64
2021/01/20 12:51:10;;;;;;;;;;;9.60;55.70;;;;;;5105188;28;20184;-65
2021/01/20 12:53:35;;;;;;;;;;;9.60;55.50;;;;;;5105114;28;19900;-67
2021/01/20 12:56:01;;;;;;;;;;;9.60;55.30;;;;;;5105071;28;19928;-67
2021/01/20 12:58:26;;;;;;;;;;;9.70;55.40;;;;;;5105032;28;20247;-68
2021/01/20 13:00:52;;;;;;;;;;;9.70;55.30;;;;;;5105003;28;20260;-65
2021/01/20 13:03:17;;;;;;;;;;;9.70;55.60;;;;;;5104846;28;19942;-64
2021/01/20 13:05:43;;;;;;;;;;;9.70;55.40;;;;;;5104565;28;19907;-66
2021/01/20 13:08:09;;;;;;;;;;;9.70;55.40;;;;;;5104801;28;19908;-65
2021/01/20 13:10:34;;;;;;;;;;;9.70;55.60;;;;;;5104813;28;19900;-66
2021/01/20 13:13:00;;;;;;;;;;;9.60;55.50;;;;;;5104709;28;19907;-66
2021/01/20 13:15:26;;;;;;;;;;;9.60;55.50;;;;;;5104689;28;19907;-68
2021/01/20 13:17:52;;;;;;;;;;;9.70;55.60;;;;;;5104636;28;19922;-68
2021/01/20 13:20:18;;;;;;;;;;;9.80;55.30;;;;;;5104567;28;19908;-66
2021/01/20 13:22:44;;;;;;;;;;;9.80;55.20;;;;;;5104345;28;19973;-66
2021/01/20 13:25:09;;;;;;;;;;;9.80;55.20;;;;;;5104483;28;19950;-66
2021/01/20 13:27:35;;;;;;;;;;;9.70;55.40;;;;;;5104432;28;19903;-68
2021/01/20 13:30:02;;;;;;;;;;;9.80;55.40;;;;;;5104453;28;19928;-67
2021/01/20 13:32:28;;;;;;;;;;;9.80;55.40;;;;;;5104329;28;19971;-63
2021/01/20 13:34:53;;;;;;;;;;;9.70;55.60;;;;;;5104288;28;19953;-67
2021/01/20 13:37:19;;;;;;;;;;;9.70;55.50;;;;;;5104219;28;19912;-66
2021/01/20 13:39:45;;;;;;;;;;;9.70;55.60;;;;;;5104198;28;19931;-67
2021/01/20 13:42:11;;;;;;;;;;;9.70;55.80;;;;;;5104173;28;19900;-66
2021/01/20 13:44:38;;;;;;;;;;;9.70;55.90;;;;;;5104055;28;19922;-65
2021/01/20 13:47:04;;;;;;;;;;;9.70;55.80;;;;;;5104071;28;19900;-66
2021/01/20 13:49:29;;;;;;;;;;;9.70;56.00;;;;;;5104070;28;19908;-64
2021/01/20 13:51:55;;;;;;;;;;;9.60;56.10;;;;;;5103995;28;19900;-67
2021/01/20 13:54:21;;;;;;;;;;;9.60;56.00;;;;;;5103918;28;19900;-68
2021/01/20 13:56:46;;;;;;;;;;;9.70;56.00;;;;;;5103856;28;19900;-67
2021/01/20 13:59:12;;;;;;;;;;;9.80;55.80;;;;;;5103848;28;19983;-65
2021/01/20 14:01:37;;;;;;;;;;;9.80;55.70;;;;;;5103778;28;19915;-65
2021/01/20 14:04:03;;;;;;;;;;;9.80;55.70;;;;;;5103683;28;19939;-66
2021/01/20 14:06:29;;;;;;;;;;;9.80;55.70;;;;;;5103689;28;19939;-66
2021/01/20 14:08:54;;;;;;;;;;;9.80;55.90;;;;;;5103671;28;19907;-66
2021/01/20 14:11:20;;;;;;;;;;;9.80;56.00;;;;;;5103554;28;19904;-67
2021/01/20 14:13:45;;;;;;;;;;;9.80;55.90;;;;;;5103566;28;19900;-68
2021/01/20 14:16:11;;;;;;;;;;;9.80;56.10;;;;;;5103478;28;19900;-68
2021/01/20 14:18:37;;;;;;;;;;;9.70;56.10;;;;;;5102713;28;20380;-66
2021/01/20 14:21:02;;;;;;;;;;;9.80;56.20;;;;;;5103441;28;19908;-65
2021/01/20 14:23:28;;;;;;;;;;;9.80;56.10;;;;;;5103123;28;20217;-65
2021/01/20 14:25:53;;;;;;;;;;;9.90;55.90;;;;;;5103382;28;19908;-66
2021/01/20 14:28:19;;;;;;;;;;;9.80;55.90;;;;;;5103303;28;19907;-65